createdAt,value
2023-02-15T00:00:41.971Z,62.80
2023-02-15T00:03:12.178Z,62.80
2023-02-15T00:05:42.385Z,62.90
2023-02-15T00:08:12.924Z,62.80
2023-02-15T00:10:43.151Z,62.80
2023-02-15T00:13:15.361Z,62.90
2023-02-15T00:15:45.570Z,62.90
2023-02-15T00:18:15.787Z,62.90
2023-02-15T00:20:46.220Z,62.80
2023-02-15T00:23:16.443Z,62.80
2023-02-15T00:25:46.695Z,62.80
2023-02-15T00:28:16.992Z,62.90
2023-02-15T00:30:47.252Z,63.00
2023-02-15T00:33:17.440Z,63.00
2023-02-15T00:35:47.652Z,63.00
2023-02-15T00:38:21.014Z,63.10
2023-02-15T00:40:56.817Z,63.10
2023-02-15T00:43:27.957Z,63.10
2023-02-15T00:45:58.290Z,63.20
2023-02-15T00:48:28.545Z,63.10
2023-02-15T00:51:01.026Z,63.40
2023-02-15T00:53:32.303Z,63.30
2023-02-15T00:56:03.142Z,63.20
2023-02-15T00:58:33.724Z,63.20
2023-02-15T01:01:13.229Z,63.20
2023-02-15T01:03:46.928Z,63.30
2023-02-15T01:06:19.229Z,63.40
2023-02-15T01:08:50.248Z,63.40
2023-02-15T01:11:27.304Z,63.50
2023-02-15T01:14:00.117Z,63.50
2023-02-15T01:16:34.961Z,63.60
2023-02-15T01:19:05.426Z,63.60
2023-02-15T01:21:37.309Z,63.60
2023-02-15T01:24:07.666Z,63.70
2023-02-15T01:26:38.180Z,63.60
2023-02-15T01:29:08.365Z,63.70
2023-02-15T01:31:38.811Z,63.70
2023-02-15T01:34:09.183Z,63.70
2023-02-15T01:36:39.634Z,63.60
2023-02-15T01:39:10.900Z,63.60
2023-02-15T01:41:41.265Z,63.70
2023-02-15T01:44:47.605Z,63.60
2023-02-15T01:50:36.114Z,63.60
2023-02-15T01:53:29.117Z,63.70
2023-02-15T01:56:23.720Z,63.60
2023-02-15T01:58:56.294Z,63.60
2023-02-15T02:01:27.855Z,63.60
2023-02-15T02:04:35.657Z,63.60
2023-02-15T02:07:07.594Z,63.40
2023-02-15T02:09:39.675Z,63.50
2023-02-15T02:12:11.266Z,63.50
2023-02-15T02:14:43.551Z,63.50
2023-02-15T02:17:38.691Z,63.50
2023-02-15T02:20:30.567Z,63.40
2023-02-15T02:23:13.021Z,63.40
2023-02-15T02:26:07.632Z,63.40
2023-02-15T02:29:01.967Z,63.30
2023-02-15T02:32:15.422Z,63.40
2023-02-15T02:35:08.636Z,63.40
2023-02-15T02:37:47.221Z,63.40
2023-02-15T02:40:32.514Z,63.40
2023-02-15T02:43:15.005Z,63.40
2023-02-15T02:46:08.436Z,63.40
2023-02-15T02:48:39.798Z,63.40
2023-02-15T02:51:10.073Z,63.40
2023-02-15T02:53:40.836Z,63.40
2023-02-15T02:56:40.411Z,63.30
2023-02-15T02:59:10.718Z,63.30
2023-02-15T03:01:49.915Z,63.30
2023-02-15T03:04:26.808Z,63.30
2023-02-15T03:07:04.506Z,63.30
2023-02-15T03:09:45.574Z,63.30
2023-02-15T03:12:23.684Z,63.20
2023-02-15T03:15:06.108Z,63.30
2023-02-15T03:17:40.395Z,63.20
2023-02-15T03:20:28.106Z,63.20
2023-02-15T03:23:16.858Z,63.20
2023-02-15T03:25:51.978Z,63.90
2023-02-15T03:28:47.563Z,63.20
2023-02-15T03:31:19.416Z,63.10
2023-02-15T03:34:01.915Z,63.20
2023-02-15T03:36:53.212Z,63.20
2023-02-15T03:39:29.632Z,63.30
2023-02-15T03:42:10.279Z,63.40
2023-02-15T03:45:03.473Z,63.30
2023-02-15T03:47:53.981Z,63.30
2023-02-15T03:50:53.678Z,63.20
2023-02-15T03:53:26.888Z,63.40
2023-02-15T03:56:00.728Z,63.30
2023-02-15T03:58:48.936Z,63.30
2023-02-15T04:01:46.720Z,63.30
2023-02-15T04:04:24.001Z,64.10
2023-02-15T04:06:55.445Z,63.50
2023-02-15T04:09:43.939Z,63.50
2023-02-15T04:12:14.150Z,63.60
2023-02-15T04:15:02.261Z,63.70
2023-02-15T04:17:32.804Z,63.70
2023-02-15T04:20:21.025Z,63.80
2023-02-15T04:23:09.471Z,64.00
2023-02-15T04:25:39.943Z,64.00
2023-02-15T04:28:10.333Z,64.00
2023-02-15T04:30:40.775Z,64.10
2023-02-15T04:33:11.007Z,64.00
2023-02-15T04:35:41.261Z,63.90
2023-02-15T04:38:13.301Z,63.70
2023-02-15T04:40:43.562Z,63.70
2023-02-15T04:43:13.730Z,63.50
2023-02-15T04:45:44.109Z,63.40
2023-02-15T04:48:14.407Z,63.20
2023-02-15T04:50:44.850Z,63.10
2023-02-15T04:53:15.133Z,63.00
2023-02-15T04:55:45.571Z,62.90
2023-02-15T04:58:15.935Z,62.80
2023-02-15T05:00:46.171Z,62.70
2023-02-15T05:03:17.635Z,62.70
2023-02-15T05:05:48.933Z,62.60
2023-02-15T05:08:31.631Z,62.60
2023-02-15T05:11:02.260Z,62.50
2023-02-15T05:13:32.765Z,62.50
2023-02-15T05:16:03.942Z,62.50
2023-02-15T05:18:34.336Z,62.50
2023-02-15T05:21:04.724Z,62.30
2023-02-15T05:23:34.934Z,62.30
2023-02-15T05:26:23.035Z,62.40
2023-02-15T05:28:56.216Z,62.60
2023-02-15T05:31:26.791Z,62.60
2023-02-15T05:33:57.906Z,62.70
2023-02-15T05:36:28.792Z,62.70
2023-02-15T05:38:59.320Z,62.70
2023-02-15T05:41:29.548Z,62.60
2023-02-15T05:43:59.950Z,62.60
2023-02-15T05:46:30.345Z,62.50
2023-02-15T05:49:00.545Z,62.40
2023-02-15T05:51:30.847Z,62.20
2023-02-15T05:54:01.074Z,62.10
2023-02-15T05:56:35.146Z,62.20
2023-02-15T05:59:05.401Z,62.20
2023-02-15T06:01:35.756Z,62.30
2023-02-15T06:04:06.024Z,62.20
2023-02-15T06:06:37.409Z,62.20
2023-02-15T06:09:07.665Z,62.20
2023-02-15T06:11:38.024Z,62.10
2023-02-15T06:14:08.377Z,62.00
2023-02-15T06:16:38.978Z,62.00
2023-02-15T06:19:09.462Z,62.00
2023-02-15T06:21:40.022Z,62.10
2023-02-15T06:24:11.746Z,62.10
2023-02-15T06:26:42.095Z,62.10
2023-02-15T06:29:12.339Z,62.20
2023-02-15T06:31:43.066Z,62.20
2023-02-15T06:34:13.471Z,62.20
2023-02-15T06:36:43.768Z,62.20
2023-02-15T06:39:14.053Z,62.10
2023-02-15T06:41:44.287Z,62.10
2023-02-15T06:44:14.474Z,62.10
2023-02-15T06:46:48.182Z,62.10
2023-02-15T06:49:18.841Z,62.10
2023-02-15T06:51:49.186Z,62.00
2023-02-15T06:54:19.639Z,62.00
2023-02-15T06:56:50.382Z,61.90
2023-02-15T06:59:20.752Z,61.90
2023-02-15T07:01:51.941Z,61.80
2023-02-15T07:04:22.388Z,61.80
2023-02-15T07:06:54.169Z,61.70
2023-02-15T07:09:25.112Z,61.70
2023-02-15T07:12:13.423Z,61.80
2023-02-15T07:14:43.733Z,61.70
2023-02-15T07:17:35.115Z,61.70
2023-02-15T07:20:16.983Z,61.80
2023-02-15T07:22:47.861Z,61.80
2023-02-15T07:25:18.985Z,61.90
2023-02-15T07:27:49.769Z,61.90
2023-02-15T07:30:20.872Z,61.90
2023-02-15T07:33:09.291Z,61.90
2023-02-15T07:35:39.547Z,61.80
2023-02-15T07:38:09.979Z,61.70
2023-02-15T07:40:40.409Z,61.70
2023-02-15T07:43:10.840Z,61.60
2023-02-15T07:45:42.374Z,61.50
2023-02-15T07:48:12.956Z,61.40
2023-02-15T07:50:43.442Z,61.40
2023-02-15T07:53:17.064Z,61.30
2023-02-15T07:55:47.320Z,61.20
2023-02-15T07:58:17.535Z,61.20
2023-02-15T08:00:59.509Z,61.20
2023-02-15T08:03:31.935Z,61.20
2023-02-15T08:06:03.490Z,61.20
2023-02-15T08:08:34.554Z,61.20
2023-02-15T08:11:28.662Z,61.20
2023-02-15T08:14:10.976Z,61.10
2023-02-15T08:16:42.414Z,61.10
2023-02-15T08:19:21.920Z,61.20
2023-02-15T08:22:00.100Z,61.20
2023-02-15T08:24:33.457Z,61.20
2023-02-15T08:27:06.738Z,61.20
2023-02-15T08:29:39.111Z,61.20
2023-02-15T08:32:16.417Z,61.20
2023-02-15T08:34:46.878Z,61.10
2023-02-15T08:37:17.097Z,61.20
2023-02-15T08:39:48.599Z,61.10
2023-02-15T08:42:18.952Z,61.10
2023-02-15T08:44:50.407Z,61.10
2023-02-15T08:47:20.661Z,61.10
2023-02-15T08:49:50.924Z,61.10
2023-02-15T08:52:21.243Z,61.10
2023-02-15T08:54:55.045Z,61.10
2023-02-15T08:57:25.341Z,61.20
2023-02-15T08:59:57.688Z,61.10
2023-02-15T09:02:28.019Z,61.10
2023-02-15T09:04:58.460Z,61.10
2023-02-15T09:07:28.731Z,61.10
2023-02-15T09:09:59.082Z,61.20
2023-02-15T09:12:29.405Z,61.10
2023-02-15T09:15:02.870Z,61.10
2023-02-15T09:17:33.861Z,61.20
2023-02-15T09:20:04.403Z,61.20
2023-02-15T09:22:34.641Z,61.20
2023-02-15T09:25:04.909Z,61.10
2023-02-15T09:27:35.189Z,61.10
2023-02-15T09:30:06.479Z,61.10
2023-02-15T09:32:36.781Z,61.10
2023-02-15T09:35:10.271Z,61.10
2023-02-15T09:37:40.634Z,61.10
2023-02-15T09:40:11.331Z,61.10
2023-02-15T09:43:15.623Z,61.10
2023-02-15T09:46:03.987Z,61.00
2023-02-15T09:48:41.985Z,61.10
2023-02-15T09:51:21.933Z,61.10
2023-02-15T09:54:08.184Z,61.10
2023-02-15T09:56:56.513Z,61.10
2023-02-15T09:59:53.520Z,61.10
2023-02-15T10:02:27.637Z,61.10
2023-02-15T10:05:10.045Z,61.20
2023-02-15T10:08:16.784Z,61.20
2023-02-15T10:11:42.382Z,61.10
2023-02-15T10:14:18.976Z,61.20
2023-02-15T10:17:21.152Z,61.30
2023-02-15T10:20:13.542Z,61.10
2023-02-15T10:23:11.216Z,61.30
2023-02-15T10:26:19.602Z,61.30
2023-02-15T10:29:11.049Z,61.30
2023-02-15T10:32:08.425Z,61.30
2023-02-15T10:34:46.841Z,61.30
2023-02-15T10:37:20.123Z,61.50
2023-02-15T10:40:32.334Z,61.50
2023-02-15T10:43:28.097Z,61.30
2023-02-15T10:46:16.495Z,61.40
2023-02-15T10:49:07.088Z,61.40
2023-02-15T10:51:51.883Z,61.60
2023-02-15T10:54:49.737Z,61.50
2023-02-15T10:57:29.949Z,61.40
2023-02-15T11:00:25.597Z,61.80
2023-02-15T11:02:56.654Z,61.50
2023-02-15T11:06:06.676Z,61.70
2023-02-15T11:08:42.720Z,61.50
2023-02-15T11:11:47.424Z,62.30
2023-02-15T11:14:50.825Z,61.50
2023-02-15T11:17:26.953Z,61.40
2023-02-15T11:20:12.854Z,61.60
2023-02-15T11:22:46.995Z,61.50
2023-02-15T11:25:43.065Z,61.50
2023-02-15T11:28:27.917Z,61.40
2023-02-15T11:31:02.014Z,61.60
2023-02-15T11:33:40.646Z,61.70
2023-02-15T11:36:40.498Z,61.70
2023-02-15T11:39:18.774Z,61.50
2023-02-15T11:41:56.617Z,61.50
2023-02-15T11:44:38.513Z,61.70
2023-02-15T11:47:14.240Z,61.60
2023-02-15T11:49:44.458Z,61.60
2023-02-15T11:52:21.232Z,61.70
2023-02-15T11:54:53.879Z,61.70
2023-02-15T11:57:44.163Z,61.70
2023-02-15T12:00:41.147Z,61.60
2023-02-15T12:03:26.071Z,61.60
2023-02-15T12:06:03.995Z,61.70
2023-02-15T12:08:49.488Z,61.80
2023-02-15T12:11:47.231Z,61.70
2023-02-15T12:14:20.602Z,61.70
2023-02-15T12:16:56.610Z,61.80
2023-02-15T12:19:37.251Z,61.80
2023-02-15T12:22:10.782Z,61.80
2023-02-15T12:24:49.175Z,61.80
2023-02-15T12:27:52.488Z,61.80
2023-02-15T12:30:25.890Z,61.80
2023-02-15T12:33:02.512Z,61.80
2023-02-15T12:35:36.270Z,61.70
2023-02-15T12:38:29.954Z,61.80
2023-02-15T12:41:27.252Z,61.80
2023-02-15T12:44:22.960Z,61.70
2023-02-15T12:47:20.443Z,61.70
2023-02-15T12:50:12.198Z,61.80
2023-02-15T12:52:42.968Z,61.80
2023-02-15T12:55:34.761Z,61.90
2023-02-15T12:58:24.884Z,61.70
2023-02-15T13:01:18.299Z,61.80
2023-02-15T13:04:06.339Z,61.80
2023-02-15T13:06:39.222Z,61.80
2023-02-15T13:09:12.886Z,61.90
2023-02-15T13:11:45.030Z,62.60
2023-02-15T13:14:24.740Z,61.90
2023-02-15T13:17:00.878Z,61.80
2023-02-15T13:19:52.475Z,61.80
2023-02-15T13:22:34.104Z,62.50
2023-02-15T13:25:27.655Z,61.90
2023-02-15T13:28:06.631Z,61.90
2023-02-15T13:30:41.753Z,61.90
2023-02-15T13:33:20.878Z,61.90
2023-02-15T13:36:12.269Z,61.90
2023-02-15T13:39:03.884Z,61.90
2023-02-15T13:41:58.465Z,61.90
2023-02-15T13:44:31.725Z,61.90
2023-02-15T13:47:30.307Z,62.10
2023-02-15T13:50:13.765Z,61.90
2023-02-15T13:52:59.161Z,62.00
2023-02-15T13:55:47.532Z,62.00
2023-02-15T13:58:54.241Z,62.00
2023-02-15T14:01:51.493Z,61.90
2023-02-15T14:04:40.022Z,62.00
2023-02-15T14:07:48.340Z,61.90
2023-02-15T14:11:01.272Z,61.90
2023-02-15T14:14:13.105Z,62.00
2023-02-15T14:17:16.809Z,62.10
2023-02-15T14:20:05.937Z,62.10
2023-02-15T14:22:47.663Z,62.10
2023-02-15T14:25:30.220Z,62.20
2023-02-15T14:28:18.666Z,62.20
2023-02-15T14:30:52.655Z,62.10
2023-02-15T14:33:35.961Z,62.20
2023-02-15T14:36:10.017Z,62.10
2023-02-15T14:39:33.501Z,62.10
2023-02-15T14:42:24.253Z,62.00
2023-02-15T14:45:20.158Z,62.10
2023-02-15T14:48:17.800Z,62.10
2023-02-15T14:50:50.336Z,62.10
2023-02-15T14:53:26.617Z,62.20
2023-02-15T14:56:29.763Z,62.20
2023-02-15T14:59:03.739Z,62.10
2023-02-15T15:01:38.932Z,62.30
2023-02-15T15:04:26.551Z,62.20
2023-02-15T15:07:24.699Z,62.20
2023-02-15T15:10:19.540Z,62.10
2023-02-15T15:12:55.196Z,62.20
2023-02-15T15:15:34.121Z,62.30
2023-02-15T15:18:12.021Z,62.30
2023-02-15T15:20:51.753Z,62.30
2023-02-15T15:23:22.334Z,62.30
2023-02-15T15:25:54.434Z,62.30
2023-02-15T15:28:39.862Z,62.30
2023-02-15T15:31:34.397Z,63.00
2023-02-15T15:34:25.704Z,62.30
2023-02-15T15:37:41.873Z,62.30
2023-02-15T15:40:36.335Z,62.30
2023-02-15T15:43:59.473Z,62.40
2023-02-15T15:46:49.986Z,62.30
2023-02-15T15:49:23.259Z,62.50
2023-02-15T15:51:53.719Z,62.50
2023-02-15T15:54:26.559Z,62.50
2023-02-15T15:57:06.724Z,62.70
2023-02-15T15:59:38.184Z,62.50
2023-02-15T16:02:10.612Z,62.60
2023-02-15T16:04:40.830Z,62.50
2023-02-15T16:07:22.878Z,62.50
2023-02-15T16:10:02.030Z,62.50
2023-02-15T16:12:37.175Z,62.50
2023-02-15T16:15:38.775Z,62.50
2023-02-15T16:18:09.346Z,62.50
2023-02-15T16:20:40.840Z,62.70
2023-02-15T16:23:49.083Z,62.60
2023-02-15T16:26:44.441Z,62.50
2023-02-15T16:29:28.867Z,62.70
2023-02-15T16:32:18.997Z,62.60
2023-02-15T16:34:59.920Z,62.60
2023-02-15T16:37:35.333Z,62.60
2023-02-15T16:40:05.750Z,62.70
2023-02-15T16:42:37.685Z,62.70
2023-02-15T16:45:16.877Z,62.70
2023-02-15T16:47:52.922Z,62.60
2023-02-15T16:50:25.479Z,62.60
2023-02-15T16:52:56.250Z,62.60
2023-02-15T16:55:29.362Z,62.60
2023-02-15T16:58:03.781Z,62.60
2023-02-15T17:00:43.667Z,62.50
2023-02-15T17:03:16.965Z,62.50
2023-02-15T17:05:51.048Z,62.60
2023-02-15T17:08:39.541Z,62.50
2023-02-15T17:11:19.264Z,62.50
2023-02-15T17:14:11.386Z,62.60
2023-02-15T17:16:57.039Z,62.50
2023-02-15T17:19:31.611Z,62.60
2023-02-15T17:22:11.162Z,63.40
2023-02-15T17:24:47.864Z,62.60
2023-02-15T17:27:37.621Z,62.60
2023-02-15T17:30:20.084Z,62.50
2023-02-15T17:33:07.196Z,62.50
2023-02-15T17:35:39.784Z,62.50
2023-02-15T17:38:31.832Z,62.60
2023-02-15T17:41:02.361Z,62.50
2023-02-15T17:43:32.849Z,62.70
2023-02-15T17:46:03.280Z,62.70
2023-02-15T17:48:39.290Z,62.70
2023-02-15T17:51:15.137Z,62.70
2023-02-15T17:54:08.071Z,62.70
2023-02-15T17:56:40.048Z,62.70
2023-02-15T17:59:11.930Z,62.70
2023-02-15T18:02:09.545Z,62.70
2023-02-15T18:04:58.493Z,62.60
2023-02-15T18:07:46.704Z,62.70
2023-02-15T18:10:37.943Z,62.70
2023-02-15T18:13:08.268Z,62.70
2023-02-15T18:15:41.200Z,62.70
2023-02-15T18:18:14.429Z,63.40
2023-02-15T18:20:45.310Z,62.60
2023-02-15T18:23:21.439Z,62.70
2023-02-15T18:25:51.603Z,62.70
2023-02-15T18:28:21.782Z,62.70
2023-02-15T18:30:52.113Z,62.70
2023-02-15T18:33:37.591Z,62.70
2023-02-15T18:36:10.732Z,62.60
2023-02-15T18:38:41.042Z,62.70
2023-02-15T18:41:17.449Z,62.70
2023-02-15T18:43:48.988Z,62.70
2023-02-15T18:46:20.373Z,62.70
2023-02-15T18:48:50.908Z,62.60
2023-02-15T18:51:23.908Z,62.70
2023-02-15T18:53:55.760Z,62.60
2023-02-15T18:56:26.222Z,62.60
2023-02-15T18:58:56.487Z,62.60
2023-02-15T19:01:26.699Z,62.70
2023-02-15T19:03:56.928Z,62.70
2023-02-15T19:06:27.409Z,62.70
2023-02-15T19:08:57.829Z,62.60
2023-02-15T19:11:30.379Z,62.70
2023-02-15T19:14:00.722Z,62.90
2023-02-15T19:16:39.355Z,62.80
2023-02-15T19:19:09.637Z,62.70
2023-02-15T19:21:41.241Z,62.80
2023-02-15T19:24:25.177Z,62.80
2023-02-15T19:26:55.907Z,62.70
2023-02-15T19:29:31.968Z,62.70
2023-02-15T19:32:02.348Z,62.70
2023-02-15T19:34:32.572Z,62.70
2023-02-15T19:37:02.955Z,62.70
2023-02-15T19:39:42.277Z,62.70
2023-02-15T19:42:20.873Z,62.60
2023-02-15T19:44:51.819Z,62.70
2023-02-15T19:47:23.511Z,62.80
2023-02-15T19:49:53.718Z,62.70
2023-02-15T19:52:26.308Z,62.80
2023-02-15T19:54:57.544Z,62.80
2023-02-15T19:57:29.457Z,62.70
2023-02-15T20:00:04.853Z,62.70
2023-02-15T20:02:39.731Z,62.70
2023-02-15T20:05:10.572Z,62.70
2023-02-15T20:07:41.177Z,62.70
2023-02-15T20:10:34.202Z,62.70
2023-02-15T20:13:04.882Z,62.60
2023-02-15T20:15:38.059Z,62.80
2023-02-15T20:18:08.771Z,62.70
2023-02-15T20:20:46.123Z,62.80
2023-02-15T20:23:24.822Z,62.70
2023-02-15T20:25:56.053Z,62.70
2023-02-15T20:28:31.672Z,62.70
2023-02-15T20:31:02.311Z,62.70
2023-02-15T20:33:33.050Z,62.70
2023-02-15T20:36:03.600Z,62.70
2023-02-15T20:38:34.773Z,62.70
2023-02-15T20:41:23.457Z,62.70
2023-02-15T20:43:53.722Z,62.70
2023-02-15T20:46:23.951Z,62.70
2023-02-15T20:48:54.328Z,62.70
2023-02-15T20:51:25.193Z,62.70
2023-02-15T20:53:55.504Z,62.70
2023-02-15T20:56:27.321Z,62.70
2023-02-15T20:58:57.591Z,62.70
2023-02-15T21:01:27.955Z,62.70
2023-02-15T21:03:58.387Z,62.80
2023-02-15T21:06:31.284Z,62.70
2023-02-15T21:09:01.597Z,62.70
2023-02-15T21:11:31.804Z,62.70
2023-02-15T21:14:02.107Z,62.80
2023-02-15T21:16:32.391Z,62.80
2023-02-15T21:19:02.755Z,62.90
2023-02-15T21:21:33.651Z,62.90
2023-02-15T21:24:04.247Z,62.90
2023-02-15T21:26:34.623Z,63.00
2023-02-15T21:29:05.906Z,62.90
2023-02-15T21:31:36.539Z,63.00
2023-02-15T21:34:06.911Z,63.00
2023-02-15T21:36:37.454Z,63.10
2023-02-15T21:39:08.485Z,63.80
2023-02-15T21:41:56.747Z,63.10
2023-02-15T21:44:56.767Z,63.10
2023-02-15T21:47:49.819Z,63.20
2023-02-15T21:50:41.818Z,63.20
2023-02-15T21:53:37.714Z,63.30
2023-02-15T21:56:09.595Z,63.30
2023-02-15T21:58:40.014Z,63.40
2023-02-15T22:01:20.118Z,63.40
2023-02-15T22:03:50.424Z,63.40
2023-02-15T22:06:20.786Z,63.40
2023-02-15T22:08:51.243Z,63.50
2023-02-15T22:11:26.937Z,63.60
2023-02-15T22:13:57.163Z,63.60
2023-02-15T22:16:27.505Z,63.70
2023-02-15T22:18:57.808Z,63.70
2023-02-15T22:21:28.975Z,63.60
2023-02-15T22:23:59.188Z,63.70
2023-02-15T22:26:30.228Z,63.70
2023-02-15T22:29:00.586Z,63.70
2023-02-15T22:31:31.280Z,63.70
2023-02-15T22:34:02.413Z,63.50
2023-02-15T22:36:33.734Z,63.60
2023-02-15T22:39:04.002Z,63.60
2023-02-15T22:41:34.404Z,63.60
2023-02-15T22:44:04.697Z,63.80
2023-02-15T22:46:35.229Z,63.70
2023-02-15T22:49:06.332Z,63.80
2023-02-15T22:51:36.574Z,64.60
2023-02-15T22:54:06.853Z,64.90
2023-02-15T22:56:45.593Z,66.00
2023-02-15T22:59:30.477Z,65.80
2023-02-15T23:02:00.946Z,65.80
2023-02-15T23:04:32.164Z,65.80
2023-02-15T23:07:02.667Z,65.70
2023-02-15T23:09:32.933Z,65.80
2023-02-15T23:12:03.208Z,65.80
2023-02-15T23:14:40.236Z,65.90
2023-02-15T23:17:11.794Z,66.30
2023-02-15T23:19:42.381Z,66.40
2023-02-15T23:22:20.430Z,66.30
2023-02-15T23:24:55.138Z,66.30
2023-02-15T23:27:43.485Z,66.40
2023-02-15T23:30:16.734Z,66.30
2023-02-15T23:32:47.539Z,66.30
2023-02-15T23:35:19.832Z,66.40
2023-02-15T23:37:50.372Z,66.20
2023-02-15T23:40:40.990Z,66.20
2023-02-15T23:43:20.889Z,66.20
2023-02-15T23:45:51.217Z,66.20
2023-02-15T23:48:32.042Z,66.10
2023-02-15T23:51:03.351Z,66.00
2023-02-15T23:53:34.703Z,66.80
2023-02-15T23:56:05.093Z,66.00
2023-02-15T23:58:43.411Z,66.10
